Richville, Minnesota
Current Conditions -  °F | °C
As of 8:34 AM on Friday 28 Nov 2014 (Local Time) from KADC Reporting Station
Light Snow Light Snow  
Wind Chill: -6°   Ceiling: 4600
Heat Index:   Visibility: 5mi
Dew Point:   Wind: 10mph
Humidity: 79%   Direction: 110°ESE
Pressure: 29.94"   Gusts: NA
Location:  46.51°N, 95.63°W
Report Text: KADC 281434Z AUTO 11009KT 5SM -SN SCT016 OVC046 M13/M16 A2994 RMK AO2
Loading
Personal Weather Stations






























Interactive Weather Map New forecast layout! Learn more

10-Day Weather Forecast

Advertisements
Track Severe Weather on mobile